sensor_id;sensor_type;location;lat;lon;timestamp;pressure;altitude;pressure_sealevel;temperature;humidity
7888;BME280;3989;48.810;9.208;2023-05-20T00:00:40;98910.19;;;10.95;nan
7888;BME280;3989;48.810;9.208;2023-05-20T00:03:06;98884.41;;;10.79;nan
7888;BME280;3989;48.810;9.208;2023-05-20T00:05:34;98892.13;;;10.74;nan
7888;BME280;3989;48.810;9.208;2023-05-20T00:08:01;98911.88;;;10.88;nan
7888;BME280;3989;48.810;9.208;2023-05-20T00:10:31;98748.63;;;9.77;nan
7888;BME280;3989;48.810;9.208;2023-05-20T00:12:58;98910.94;;;10.81;nan
7888;BME280;3989;48.810;9.208;2023-05-20T00:15:24;98910.78;;;10.82;nan
7888;BME280;3989;48.810;9.208;2023-05-20T00:17:51;98903.56;;;10.83;nan
7888;BME280;3989;48.810;9.208;2023-05-20T00:20:17;98897.88;;;10.86;nan
7888;BME280;3989;48.810;9.208;2023-05-20T00:22:45;98902.22;;;10.87;nan
7888;BME280;3989;48.810;9.208;2023-05-20T00:25:12;98849.16;;;10.38;nan
7888;BME280;3989;48.810;9.208;2023-05-20T00:27:39;98855.00;;;10.65;nan
7888;BME280;3989;48.810;9.208;2023-05-20T00:30:07;98868.84;;;10.83;nan
7888;BME280;3989;48.810;9.208;2023-05-20T00:32:34;98898.22;;;11.05;nan
7888;BME280;3989;48.810;9.208;2023-05-20T00:35:01;98901.38;;;11.09;nan
7888;BME280;3989;48.810;9.208;2023-05-20T00:37:28;98894.84;;;11.12;nan
7888;BME280;3989;48.810;9.208;2023-05-20T00:39:56;98888.22;;;11.07;nan
7888;BME280;3989;48.810;9.208;2023-05-20T00:42:24;98896.34;;;11.14;nan
7888;BME280;3989;48.810;9.208;2023-05-20T00:44:51;98897.81;;;11.17;nan
7888;BME280;3989;48.810;9.208;2023-05-20T00:47:19;98830.00;;;10.80;nan
7888;BME280;3989;48.810;9.208;2023-05-20T00:49:48;98859.19;;;11.04;nan
7888;BME280;3989;48.810;9.208;2023-05-20T00:52:16;98717.47;;;10.31;nan
7888;BME280;3989;48.810;9.208;2023-05-20T00:54:44;98889.78;;;11.54;nan
7888;BME280;3989;48.810;9.208;2023-05-20T00:57:12;98884.38;;;11.62;nan
7888;BME280;3989;48.810;9.208;2023-05-20T00:59:39;98883.63;;;11.68;nan
7888;BME280;3989;48.810;9.208;2023-05-20T01:02:06;98863.63;;;11.64;nan
7888;BME280;3989;48.810;9.208;2023-05-20T01:04:33;98773.38;;;11.22;nan
7888;BME280;3989;48.810;9.208;2023-05-20T01:07:01;98856.41;;;11.73;nan
7888;BME280;3989;48.810;9.208;2023-05-20T01:09:29;98887.94;;;11.92;nan
7888;BME280;3989;48.810;9.208;2023-05-20T01:11:58;98882.00;;;11.96;nan
7888;BME280;3989;48.810;9.208;2023-05-20T01:14:34;98888.91;;;12.05;nan
7888;BME280;3989;48.810;9.208;2023-05-20T01:17:02;98844.22;;;11.85;nan
7888;BME280;3989;48.810;9.208;2023-05-20T01:19:37;98874.25;;;12.16;nan
7888;BME280;3989;48.810;9.208;2023-05-20T01:22:07;98869.91;;;12.15;nan
7888;BME280;3989;48.810;9.208;2023-05-20T01:24:39;98873.56;;;12.29;nan
7888;BME280;3989;48.810;9.208;2023-05-20T01:27:05;98810.44;;;11.98;nan
7888;BME280;3989;48.810;9.208;2023-05-20T01:29:34;98801.13;;;11.94;nan
7888;BME280;3989;48.810;9.208;2023-05-20T01:32:04;98875.03;;;12.46;nan
7888;BME280;3989;48.810;9.208;2023-05-20T01:34:32;98861.44;;;12.47;nan
7888;BME280;3989;48.810;9.208;2023-05-20T01:36:59;98835.03;;;12.23;nan
7888;BME280;3989;48.810;9.208;2023-05-20T01:39:27;98867.16;;;12.44;nan
7888;BME280;3989;48.810;9.208;2023-05-20T01:41:56;98670.56;;;11.18;nan
7888;BME280;3989;48.810;9.208;2023-05-20T01:44:23;98865.16;;;12.46;nan
7888;BME280;3989;48.810;9.208;2023-05-20T01:46:50;98863.09;;;12.48;nan
7888;BME280;3989;48.810;9.208;2023-05-20T01:49:17;98591.31;;;10.89;nan
7888;BME280;3989;48.810;9.208;2023-05-20T01:51:43;98680.16;;;11.42;nan
7888;BME280;3989;48.810;9.208;2023-05-20T01:54:10;98862.47;;;12.46;nan
7888;BME280;3989;48.810;9.208;2023-05-20T01:56:37;98845.19;;;12.28;nan
7888;BME280;3989;48.810;9.208;2023-05-20T01:59:05;98759.84;;;11.82;nan
7888;BME280;3989;48.810;9.208;2023-05-20T02:01:31;98772.84;;;11.85;nan
7888;BME280;3989;48.810;9.208;2023-05-20T02:03:58;98865.63;;;12.35;nan
7888;BME280;3989;48.810;9.208;2023-05-20T02:06:25;98856.97;;;12.33;nan
7888;BME280;3989;48.810;9.208;2023-05-20T02:08:52;98856.06;;;12.26;nan
7888;BME280;3989;48.810;9.208;2023-05-20T02:11:18;98853.41;;;12.12;nan
7888;BME280;3989;48.810;9.208;2023-05-20T02:13:46;98758.56;;;11.49;nan
7888;BME280;3989;48.810;9.208;2023-05-20T02:16:14;98611.19;;;10.58;nan
7888;BME280;3989;48.810;9.208;2023-05-20T02:18:41;98839.50;;;11.87;nan
7888;BME280;3989;48.810;9.208;2023-05-20T02:21:08;98702.28;;;10.92;nan
7888;BME280;3989;48.810;9.208;2023-05-20T02:23:35;98777.72;;;11.38;nan
7888;BME280;3989;48.810;9.208;2023-05-20T02:26:01;98821.97;;;11.55;nan
7888;BME280;3989;48.810;9.208;2023-05-20T02:28:28;98713.69;;;10.63;nan
7888;BME280;3989;48.810;9.208;2023-05-20T02:30:55;98860.94;;;11.64;nan
7888;BME280;3989;48.810;9.208;2023-05-20T02:33:23;98685.44;;;10.54;nan
7888;BME280;3989;48.810;9.208;2023-05-20T02:35:52;98549.13;;;9.74;nan
7888;BME280;3989;48.810;9.208;2023-05-20T02:38:18;98844.81;;;11.43;nan
7888;BME280;3989;48.810;9.208;2023-05-20T02:40:46;98698.19;;;10.44;nan
7888;BME280;3989;48.810;9.208;2023-05-20T02:43:12;98753.69;;;10.86;nan
7888;BME280;3989;48.810;9.208;2023-05-20T02:45:39;98862.22;;;11.53;nan
7888;BME280;3989;48.810;9.208;2023-05-20T02:48:06;98860.38;;;11.54;nan
7888;BME280;3989;48.810;9.208;2023-05-20T02:50:37;98855.22;;;11.52;nan
7888;BME280;3989;48.810;9.208;2023-05-20T02:53:03;98843.34;;;11.40;nan
7888;BME280;3989;48.810;9.208;2023-05-20T02:55:33;98839.25;;;11.30;nan
7888;BME280;3989;48.810;9.208;2023-05-20T02:57:59;98793.06;;;10.92;nan
7888;BME280;3989;48.810;9.208;2023-05-20T03:00:26;98853.03;;;11.19;nan
7888;BME280;3989;48.810;9.208;2023-05-20T03:02:54;98859.78;;;11.15;nan
7888;BME280;3989;48.810;9.208;2023-05-20T03:05:21;98859.09;;;11.13;nan
7888;BME280;3989;48.810;9.208;2023-05-20T03:07:49;98844.34;;;11.02;nan
7888;BME280;3989;48.810;9.208;2023-05-20T03:10:16;98787.84;;;10.76;nan
7888;BME280;3989;48.810;9.208;2023-05-20T03:12:42;98860.06;;;11.20;nan
7888;BME280;3989;48.810;9.208;2023-05-20T03:15:09;98859.69;;;11.23;nan
7888;BME280;3989;48.810;9.208;2023-05-20T03:17:36;98853.16;;;11.25;nan
7888;BME280;3989;48.810;9.208;2023-05-20T03:20:03;98825.75;;;11.08;nan
7888;BME280;3989;48.810;9.208;2023-05-20T03:22:31;98828.06;;;11.12;nan
7888;BME280;3989;48.810;9.208;2023-05-20T03:24:59;98852.41;;;11.31;nan
7888;BME280;3989;48.810;9.208;2023-05-20T03:27:26;98799.03;;;10.94;nan
7888;BME280;3989;48.810;9.208;2023-05-20T03:29:53;98855.19;;;11.23;nan
7888;BME280;3989;48.810;9.208;2023-05-20T03:32:19;98857.38;;;11.20;nan
7888;BME280;3989;48.810;9.208;2023-05-20T03:34:46;98750.94;;;10.57;nan
7888;BME280;3989;48.810;9.208;2023-05-20T03:37:12;98857.09;;;11.15;nan
7888;BME280;3989;48.810;9.208;2023-05-20T03:39:39;98872.19;;;11.07;nan
7888;BME280;3989;48.810;9.208;2023-05-20T03:42:07;98674.25;;;9.90;nan
7888;BME280;3989;48.810;9.208;2023-05-20T03:44:34;98839.44;;;10.91;nan
7888;BME280;3989;48.810;9.208;2023-05-20T03:47:00;98825.41;;;10.89;nan
7888;BME280;3989;48.810;9.208;2023-05-20T03:49:27;98858.06;;;10.99;nan
7888;BME280;3989;48.810;9.208;2023-05-20T03:51:54;98717.19;;;10.26;nan
7888;BME280;3989;48.810;9.208;2023-05-20T03:54:20;98803.41;;;10.72;nan
7888;BME280;3989;48.810;9.208;2023-05-20T03:56:47;98808.41;;;10.90;nan
7888;BME280;3989;48.810;9.208;2023-05-20T03:59:15;98861.94;;;11.34;nan
7888;BME280;3989;48.810;9.208;2023-05-20T04:01:42;98861.00;;;11.41;nan
7888;BME280;3989;48.810;9.208;2023-05-20T04:04:09;98844.88;;;11.35;nan
7888;BME280;3989;48.810;9.208;2023-05-20T04:06:35;98828.13;;;11.41;nan
7888;BME280;3989;48.810;9.208;2023-05-20T04:09:02;98852.09;;;11.64;nan
7888;BME280;3989;48.810;9.208;2023-05-20T04:11:28;98851.03;;;11.73;nan
7888;BME280;3989;48.810;9.208;2023-05-20T04:13:55;98822.06;;;11.62;nan
7888;BME280;3989;48.810;9.208;2023-05-20T04:16:24;98859.69;;;11.89;nan
7888;BME280;3989;48.810;9.208;2023-05-20T04:18:50;98735.06;;;11.15;nan
7888;BME280;3989;48.810;9.208;2023-05-20T04:21:17;98567.00;;;10.26;nan
7888;BME280;3989;48.810;9.208;2023-05-20T04:23:44;98757.09;;;11.46;nan
7888;BME280;3989;48.810;9.208;2023-05-20T04:26:10;98805.31;;;11.82;nan
7888;BME280;3989;48.810;9.208;2023-05-20T04:28:37;98815.50;;;11.93;nan
7888;BME280;3989;48.810;9.208;2023-05-20T04:31:06;98834.50;;;12.13;nan
7888;BME280;3989;48.810;9.208;2023-05-20T04:33:34;98804.72;;;12.01;nan
7888;BME280;3989;48.810;9.208;2023-05-20T04:36:02;98822.09;;;12.27;nan
7888;BME280;3989;48.810;9.208;2023-05-20T04:38:29;98822.63;;;12.37;nan
7888;BME280;3989;48.810;9.208;2023-05-20T04:40:56;98835.19;;;12.57;nan
7888;BME280;3989;48.810;9.208;2023-05-20T04:43:23;98624.78;;;11.21;nan
7888;BME280;3989;48.810;9.208;2023-05-20T04:45:54;98838.63;;;12.51;nan
7888;BME280;3989;48.810;9.208;2023-05-20T04:48:20;98843.16;;;12.51;nan
7888;BME280;3989;48.810;9.208;2023-05-20T04:50:49;98789.00;;;12.13;nan
7888;BME280;3989;48.810;9.208;2023-05-20T04:53:16;98641.66;;;11.22;nan
7888;BME280;3989;48.810;9.208;2023-05-20T04:55:43;98843.53;;;12.48;nan
7888;BME280;3989;48.810;9.208;2023-05-20T04:58:09;98763.78;;;12.01;nan
7888;BME280;3989;48.810;9.208;2023-05-20T05:00:39;98754.28;;;11.98;nan
7888;BME280;3989;48.810;9.208;2023-05-20T05:03:06;98812.44;;;12.47;nan
7888;BME280;3989;48.810;9.208;2023-05-20T05:05:33;98818.03;;;12.73;nan
7888;BME280;3989;48.810;9.208;2023-05-20T05:08:02;98843.88;;;13.23;nan
7888;BME280;3989;48.810;9.208;2023-05-20T05:10:28;98863.53;;;13.58;nan
7888;BME280;3989;48.810;9.208;2023-05-20T05:12:55;98816.59;;;13.75;nan
7888;BME280;3989;48.810;9.208;2023-05-20T05:15:21;98699.78;;;13.25;nan
7888;BME280;3989;48.810;9.208;2023-05-20T05:17:48;98831.03;;;14.15;nan
7888;BME280;3989;48.810;9.208;2023-05-20T05:20:15;98656.31;;;13.30;nan
7888;BME280;3989;48.810;9.208;2023-05-20T05:22:41;98788.28;;;14.13;nan
7888;BME280;3989;48.810;9.208;2023-05-20T05:25:10;98831.00;;;14.56;nan
7888;BME280;3989;48.810;9.208;2023-05-20T05:27:38;98804.31;;;14.48;nan
7888;BME280;3989;48.810;9.208;2023-05-20T05:30:05;98823.00;;;14.82;nan
7888;BME280;3989;48.810;9.208;2023-05-20T05:32:32;98749.59;;;14.55;nan
7888;BME280;3989;48.810;9.208;2023-05-20T05:34:59;98789.72;;;14.90;nan
7888;BME280;3989;48.810;9.208;2023-05-20T05:37:25;98789.72;;;15.03;nan
7888;BME280;3989;48.810;9.208;2023-05-20T05:39:52;98815.56;;;15.30;nan
7888;BME280;3989;48.810;9.208;2023-05-20T05:42:20;98818.44;;;15.35;nan
7888;BME280;3989;48.810;9.208;2023-05-20T05:44:47;98778.34;;;15.20;nan
7888;BME280;3989;48.810;9.208;2023-05-20T05:47:14;98809.97;;;15.58;nan
7888;BME280;3989;48.810;9.208;2023-05-20T05:49:40;98805.63;;;15.70;nan
7888;BME280;3989;48.810;9.208;2023-05-20T05:52:07;98755.78;;;15.48;nan
7888;BME280;3989;48.810;9.208;2023-05-20T05:54:35;98646.88;;;14.93;nan
7888;BME280;3989;48.810;9.208;2023-05-20T05:57:02;98795.19;;;15.87;nan
7888;BME280;3989;48.810;9.208;2023-05-20T05:59:30;98655.34;;;15.03;nan
7888;BME280;3989;48.810;9.208;2023-05-20T06:01:59;98812.97;;;15.94;nan
7888;BME280;3989;48.810;9.208;2023-05-20T06:04:26;98811.31;;;15.93;nan
7888;BME280;3989;48.810;9.208;2023-05-20T06:06:53;98711.94;;;15.54;nan
7888;BME280;3989;48.810;9.208;2023-05-20T06:09:23;98565.31;;;14.67;nan
7888;BME280;3989;48.810;9.208;2023-05-20T06:11:49;98543.88;;;14.41;nan
7888;BME280;3989;48.810;9.208;2023-05-20T06:14:16;98736.28;;;15.65;nan
7888;BME280;3989;48.810;9.208;2023-05-20T06:16:44;98719.91;;;15.73;nan
7888;BME280;3989;48.810;9.208;2023-05-20T06:19:11;98733.53;;;15.85;nan
7888;BME280;3989;48.810;9.208;2023-05-20T06:21:37;98640.56;;;15.38;nan
7888;BME280;3989;48.810;9.208;2023-05-20T06:24:04;98811.16;;;16.33;nan
7888;BME280;3989;48.810;9.208;2023-05-20T06:26:31;98484.84;;;14.22;nan
7888;BME280;3989;48.810;9.208;2023-05-20T06:28:58;98679.66;;;15.41;nan
7888;BME280;3989;48.810;9.208;2023-05-20T06:31:25;98552.31;;;14.64;nan
7888;BME280;3989;48.810;9.208;2023-05-20T06:33:53;98788.38;;;16.28;nan
7888;BME280;3989;48.810;9.208;2023-05-20T06:36:21;98736.72;;;16.07;nan
7888;BME280;3989;48.810;9.208;2023-05-20T06:38:48;98547.00;;;15.09;nan
7888;BME280;3989;48.810;9.208;2023-05-20T06:41:14;98787.19;;;16.94;nan
7888;BME280;3989;48.810;9.208;2023-05-20T06:43:41;98787.16;;;17.25;nan
7888;BME280;3989;48.810;9.208;2023-05-20T06:46:08;98551.75;;;15.89;nan
7888;BME280;3989;48.810;9.208;2023-05-20T06:48:34;98784.47;;;17.86;nan
7888;BME280;3989;48.810;9.208;2023-05-20T06:51:03;98687.16;;;17.63;nan
7888;BME280;3989;48.810;9.208;2023-05-20T06:53:30;98650.91;;;17.89;nan
7888;BME280;3989;48.810;9.208;2023-05-20T06:55:56;98774.94;;;18.91;nan
7888;BME280;3989;48.810;9.208;2023-05-20T06:58:23;98775.66;;;18.98;nan
7888;BME280;3989;48.810;9.208;2023-05-20T07:00:50;98752.63;;;18.96;nan
7888;BME280;3989;48.810;9.208;2023-05-20T07:03:16;98623.94;;;18.42;nan
7888;BME280;3989;48.810;9.208;2023-05-20T07:05:43;98780.06;;;19.46;nan
7888;BME280;3989;48.810;9.208;2023-05-20T07:08:11;98775.22;;;19.24;nan
7888;BME280;3989;48.810;9.208;2023-05-20T07:10:38;98776.75;;;19.20;nan
7888;BME280;3989;48.810;9.208;2023-05-20T07:13:05;98680.72;;;18.65;nan
7888;BME280;3989;48.810;9.208;2023-05-20T07:15:31;98613.66;;;18.09;nan
7888;BME280;3989;48.810;9.208;2023-05-20T07:17:58;98662.03;;;18.52;nan
7888;BME280;3989;48.810;9.208;2023-05-20T07:20:26;98666.75;;;18.68;nan
7888;BME280;3989;48.810;9.208;2023-05-20T07:22:53;98610.50;;;18.23;nan
7888;BME280;3989;48.810;9.208;2023-05-20T07:25:21;98711.66;;;18.80;nan
7888;BME280;3989;48.810;9.208;2023-05-20T07:27:48;98702.25;;;18.30;nan
7888;BME280;3989;48.810;9.208;2023-05-20T07:30:14;98681.34;;;17.96;nan
7888;BME280;3989;48.810;9.208;2023-05-20T07:32:41;98749.47;;;18.27;nan
7888;BME280;3989;48.810;9.208;2023-05-20T07:35:08;98742.00;;;18.11;nan
7888;BME280;3989;48.810;9.208;2023-05-20T07:37:34;98638.13;;;17.48;nan
7888;BME280;3989;48.810;9.208;2023-05-20T07:40:01;98580.63;;;16.99;nan
7888;BME280;3989;48.810;9.208;2023-05-20T07:42:31;98738.91;;;18.08;nan
7888;BME280;3989;48.810;9.208;2023-05-20T07:44:57;98722.19;;;18.29;nan
7888;BME280;3989;48.810;9.208;2023-05-20T07:47:24;98649.50;;;18.27;nan
7888;BME280;3989;48.810;9.208;2023-05-20T07:49:50;98732.28;;;18.93;nan
7888;BME280;3989;48.810;9.208;2023-05-20T07:52:17;98645.78;;;18.40;nan
7888;BME280;3989;48.810;9.208;2023-05-20T07:54:44;98666.06;;;18.31;nan
7888;BME280;3989;48.810;9.208;2023-05-20T07:57:11;98728.06;;;18.56;nan
7888;BME280;3989;48.810;9.208;2023-05-20T07:59:39;98722.38;;;18.75;nan
7888;BME280;3989;48.810;9.208;2023-05-20T08:02:05;98715.09;;;18.76;nan
7888;BME280;3989;48.810;9.208;2023-05-20T08:04:32;98676.53;;;18.92;nan
7888;BME280;3989;48.810;9.208;2023-05-20T08:06:59;98718.53;;;19.53;nan
7888;BME280;3989;48.810;9.208;2023-05-20T08:09:25;98716.00;;;19.86;nan
7888;BME280;3989;48.810;9.208;2023-05-20T08:11:52;98719.03;;;20.29;nan
7888;BME280;3989;48.810;9.208;2023-05-20T08:14:19;98694.53;;;19.96;nan
7888;BME280;3989;48.810;9.208;2023-05-20T08:16:47;98719.13;;;19.55;nan
7888;BME280;3989;48.810;9.208;2023-05-20T08:19:13;98583.16;;;18.43;nan
7888;BME280;3989;48.810;9.208;2023-05-20T08:21:40;98648.56;;;18.63;nan
7888;BME280;3989;48.810;9.208;2023-05-20T08:24:07;98724.53;;;19.31;nan
7888;BME280;3989;48.810;9.208;2023-05-20T08:26:36;98525.97;;;18.34;nan
7888;BME280;3989;48.810;9.208;2023-05-20T08:29:03;98612.59;;;18.86;nan
7888;BME280;3989;48.810;9.208;2023-05-20T08:31:31;98729.13;;;19.31;nan
7888;BME280;3989;48.810;9.208;2023-05-20T08:33:59;98653.75;;;19.00;nan
7888;BME280;3989;48.810;9.208;2023-05-20T08:36:25;98732.53;;;19.50;nan
7888;BME280;3989;48.810;9.208;2023-05-20T08:38:52;98699.34;;;19.31;nan
7888;BME280;3989;48.810;9.208;2023-05-20T08:41:20;98648.63;;;19.26;nan
7888;BME280;3989;48.810;9.208;2023-05-20T08:43:47;98514.78;;;18.43;nan
7888;BME280;3989;48.810;9.208;2023-05-20T08:46:15;98703.19;;;19.70;nan
7888;BME280;3989;48.810;9.208;2023-05-20T08:48:43;98549.31;;;18.87;nan
7888;BME280;3989;48.810;9.208;2023-05-20T08:51:12;98697.31;;;20.13;nan
7888;BME280;3989;48.810;9.208;2023-05-20T08:53:40;98669.13;;;20.42;nan
7888;BME280;3989;48.810;9.208;2023-05-20T08:56:08;98723.91;;;21.22;nan
7888;BME280;3989;48.810;9.208;2023-05-20T08:58:36;98732.06;;;21.61;nan
7888;BME280;3989;48.810;9.208;2023-05-20T09:01:05;98676.00;;;21.33;nan
7888;BME280;3989;48.810;9.208;2023-05-20T09:03:32;98623.59;;;21.11;nan
7888;BME280;3989;48.810;9.208;2023-05-20T09:06:03;98731.13;;;21.72;nan
7888;BME280;3989;48.810;9.208;2023-05-20T09:08:31;98583.50;;;20.96;nan
7888;BME280;3989;48.810;9.208;2023-05-20T09:10:59;98726.91;;;21.81;nan
7888;BME280;3989;48.810;9.208;2023-05-20T09:13:26;98730.06;;;21.18;nan
7888;BME280;3989;48.810;9.208;2023-05-20T09:15:52;98656.81;;;20.34;nan
7888;BME280;3989;48.810;9.208;2023-05-20T09:18:19;98664.59;;;20.31;nan
7888;BME280;3989;48.810;9.208;2023-05-20T09:20:46;98702.56;;;20.19;nan
7888;BME280;3989;48.810;9.208;2023-05-20T09:23:13;98585.63;;;19.14;nan
7888;BME280;3989;48.810;9.208;2023-05-20T09:25:41;98701.84;;;19.84;nan
7888;BME280;3989;48.810;9.208;2023-05-20T09:28:08;98713.59;;;20.01;nan
7888;BME280;3989;48.810;9.208;2023-05-20T09:30:36;98662.03;;;19.96;nan
7888;BME280;3989;48.810;9.208;2023-05-20T09:33:03;98497.59;;;18.95;nan
7888;BME280;3989;48.810;9.208;2023-05-20T09:35:34;98711.63;;;20.70;nan
7888;BME280;3989;48.810;9.208;2023-05-20T09:38:04;98708.38;;;21.18;nan
7888;BME280;3989;48.810;9.208;2023-05-20T09:40:31;98707.81;;;21.76;nan
7888;BME280;3989;48.810;9.208;2023-05-20T09:43:01;98700.66;;;22.35;nan
7888;BME280;3989;48.810;9.208;2023-05-20T09:45:28;98555.00;;;21.85;nan
7888;BME280;3989;48.810;9.208;2023-05-20T09:47:56;98701.66;;;22.56;nan
7888;BME280;3989;48.810;9.208;2023-05-20T09:50:23;98661.50;;;22.36;nan
7888;BME280;3989;48.810;9.208;2023-05-20T09:52:51;98702.06;;;23.01;nan
7888;BME280;3989;48.810;9.208;2023-05-20T09:55:20;98689.59;;;23.42;nan
7888;BME280;3989;48.810;9.208;2023-05-20T09:57:46;98682.91;;;23.65;nan
7888;BME280;3989;48.810;9.208;2023-05-20T10:00:15;98653.38;;;23.46;nan
7888;BME280;3989;48.810;9.208;2023-05-20T10:02:43;98639.94;;;23.92;nan
7888;BME280;3989;48.810;9.208;2023-05-20T10:05:14;98578.03;;;23.72;nan
7888;BME280;3989;48.810;9.208;2023-05-20T10:07:55;98668.75;;;24.65;nan
7888;BME280;3989;48.810;9.208;2023-05-20T10:10:38;98488.78;;;23.17;nan
7888;BME280;3989;48.810;9.208;2023-05-20T10:13:17;98661.03;;;24.12;nan
7888;BME280;3989;48.810;9.208;2023-05-20T10:15:54;98667.28;;;24.07;nan
7888;BME280;3989;48.810;9.208;2023-05-20T10:18:37;98664.50;;;24.02;nan
7888;BME280;3989;48.810;9.208;2023-05-20T10:21:14;98650.75;;;23.67;nan
7888;BME280;3989;48.810;9.208;2023-05-20T10:23:41;98656.75;;;23.69;nan
7888;BME280;3989;48.810;9.208;2023-05-20T10:26:08;98554.09;;;23.17;nan
7888;BME280;3989;48.810;9.208;2023-05-20T10:28:36;98614.22;;;23.58;nan
7888;BME280;3989;48.810;9.208;2023-05-20T10:31:14;98653.38;;;23.41;nan
7888;BME280;3989;48.810;9.208;2023-05-20T10:33:41;98443.59;;;22.17;nan
7888;BME280;3989;48.810;9.208;2023-05-20T10:36:08;98650.84;;;23.87;nan
7888;BME280;3989;48.810;9.208;2023-05-20T10:38:35;98631.06;;;24.17;nan
7888;BME280;3989;48.810;9.208;2023-05-20T10:41:07;98633.78;;;24.37;nan
7888;BME280;3989;48.810;9.208;2023-05-20T10:43:35;98640.66;;;24.85;nan
7888;BME280;3989;48.810;9.208;2023-05-20T10:46:03;98640.38;;;25.06;nan
7888;BME280;3989;48.810;9.208;2023-05-20T10:48:31;98631.31;;;25.11;nan
7888;BME280;3989;48.810;9.208;2023-05-20T10:50:59;98647.44;;;25.18;nan
7888;BME280;3989;48.810;9.208;2023-05-20T10:53:29;98631.63;;;24.64;nan
7888;BME280;3989;48.810;9.208;2023-05-20T10:55:56;98631.34;;;24.40;nan
7888;BME280;3989;48.810;9.208;2023-05-20T10:58:23;98644.97;;;24.40;nan
7888;BME280;3989;48.810;9.208;2023-05-20T11:00:53;98613.34;;;24.19;nan
7888;BME280;3989;48.810;9.208;2023-05-20T11:03:21;98519.94;;;23.46;nan
7888;BME280;3989;48.810;9.208;2023-05-20T11:05:49;98595.78;;;23.80;nan
7888;BME280;3989;48.810;9.208;2023-05-20T11:08:16;98482.19;;;23.03;nan
7888;BME280;3989;48.810;9.208;2023-05-20T11:10:42;98612.69;;;23.92;nan
7888;BME280;3989;48.810;9.208;2023-05-20T11:13:11;98507.88;;;23.22;nan
7888;BME280;3989;48.810;9.208;2023-05-20T11:15:38;98609.72;;;23.98;nan
7888;BME280;3989;48.810;9.208;2023-05-20T11:18:05;98598.00;;;24.03;nan
7888;BME280;3989;48.810;9.208;2023-05-20T11:20:33;98517.59;;;23.03;nan
7888;BME280;3989;48.810;9.208;2023-05-20T11:23:00;98594.16;;;23.22;nan
7888;BME280;3989;48.810;9.208;2023-05-20T11:25:28;98472.91;;;22.47;nan
7888;BME280;3989;48.810;9.208;2023-05-20T11:27:54;98544.09;;;22.76;nan
7888;BME280;3989;48.810;9.208;2023-05-20T11:30:21;98586.78;;;23.17;nan
7888;BME280;3989;48.810;9.208;2023-05-20T11:32:58;98562.91;;;23.39;nan
7888;BME280;3989;48.810;9.208;2023-05-20T11:35:26;98574.00;;;24.05;nan
7888;BME280;3989;48.810;9.208;2023-05-20T11:37:56;98581.97;;;24.62;nan
7888;BME280;3989;48.810;9.208;2023-05-20T11:40:24;98512.41;;;24.54;nan
7888;BME280;3989;48.810;9.208;2023-05-20T11:42:54;98558.78;;;24.70;nan
7888;BME280;3989;48.810;9.208;2023-05-20T11:45:21;98573.19;;;25.05;nan
7888;BME280;3989;48.810;9.208;2023-05-20T11:47:58;98566.16;;;24.64;nan
7888;BME280;3989;48.810;9.208;2023-05-20T11:50:25;98577.34;;;24.37;nan
7888;BME280;3989;48.810;9.208;2023-05-20T11:53:02;98572.19;;;24.36;nan
7888;BME280;3989;48.810;9.208;2023-05-20T11:55:30;98553.34;;;24.24;nan
7888;BME280;3989;48.810;9.208;2023-05-20T11:57:57;98577.63;;;24.61;nan
7888;BME280;3989;48.810;9.208;2023-05-20T12:00:24;98562.06;;;24.46;nan
7888;BME280;3989;48.810;9.208;2023-05-20T12:02:51;98558.00;;;24.49;nan
7888;BME280;3989;48.810;9.208;2023-05-20T12:05:17;98564.25;;;24.29;nan
7888;BME280;3989;48.810;9.208;2023-05-20T12:07:44;98453.22;;;23.49;nan
7888;BME280;3989;48.810;9.208;2023-05-20T12:10:12;98452.97;;;23.45;nan
7888;BME280;3989;48.810;9.208;2023-05-20T12:12:39;98553.28;;;23.99;nan
7888;BME280;3989;48.810;9.208;2023-05-20T12:15:06;98545.09;;;24.04;nan
7888;BME280;3989;48.810;9.208;2023-05-20T12:17:44;98560.13;;;24.77;nan
7888;BME280;3989;48.810;9.208;2023-05-20T12:20:12;98554.47;;;25.48;nan
7888;BME280;3989;48.810;9.208;2023-05-20T12:22:39;98396.69;;;25.30;nan
7888;BME280;3989;48.810;9.208;2023-05-20T12:25:06;98531.53;;;26.66;nan
7888;BME280;3989;48.810;9.208;2023-05-20T12:27:34;98512.97;;;26.86;nan
7888;BME280;3989;48.810;9.208;2023-05-20T12:30:00;98517.28;;;26.63;nan
7888;BME280;3989;48.810;9.208;2023-05-20T12:32:27;98504.16;;;25.98;nan
7888;BME280;3989;48.810;9.208;2023-05-20T12:34:54;98515.84;;;25.70;nan
7888;BME280;3989;48.810;9.208;2023-05-20T12:37:20;98398.94;;;24.53;nan
7888;BME280;3989;48.810;9.208;2023-05-20T12:39:47;98493.75;;;25.07;nan
7888;BME280;3989;48.810;9.208;2023-05-20T12:42:14;98473.63;;;24.83;nan
7888;BME280;3989;48.810;9.208;2023-05-20T12:44:42;98544.03;;;25.65;nan
7888;BME280;3989;48.810;9.208;2023-05-20T12:47:08;98435.50;;;25.22;nan
7888;BME280;3989;48.810;9.208;2023-05-20T12:49:35;98556.84;;;25.70;nan
7888;BME280;3989;48.810;9.208;2023-05-20T12:52:01;98536.91;;;25.64;nan
7888;BME280;3989;48.810;9.208;2023-05-20T12:54:28;98288.16;;;24.58;nan
7888;BME280;3989;48.810;9.208;2023-05-20T12:56:54;98478.13;;;25.72;nan
7888;BME280;3989;48.810;9.208;2023-05-20T12:59:21;98526.63;;;25.41;nan
7888;BME280;3989;48.810;9.208;2023-05-20T13:01:49;98480.09;;;25.07;nan
7888;BME280;3989;48.810;9.208;2023-05-20T13:04:15;98334.91;;;24.36;nan
7888;BME280;3989;48.810;9.208;2023-05-20T13:06:42;98511.06;;;25.90;nan
7888;BME280;3989;48.810;9.208;2023-05-20T13:09:08;98509.31;;;26.38;nan
7888;BME280;3989;48.810;9.208;2023-05-20T13:11:35;98489.81;;;27.21;nan
7888;BME280;3989;48.810;9.208;2023-05-20T13:14:01;98518.78;;;27.27;nan
7888;BME280;3989;48.810;9.208;2023-05-20T13:16:28;98510.41;;;27.19;nan
7888;BME280;3989;48.810;9.208;2023-05-20T13:18:56;98450.53;;;26.36;nan
7888;BME280;3989;48.810;9.208;2023-05-20T13:21:22;98513.16;;;26.95;nan
7888;BME280;3989;48.810;9.208;2023-05-20T13:23:49;98511.09;;;27.29;nan
7888;BME280;3989;48.810;9.208;2023-05-20T13:26:16;98507.03;;;27.27;nan
7888;BME280;3989;48.810;9.208;2023-05-20T13:28:42;98506.53;;;27.43;nan
7888;BME280;3989;48.810;9.208;2023-05-20T13:31:09;98497.59;;;27.56;nan
7888;BME280;3989;48.810;9.208;2023-05-20T13:33:35;98490.50;;;27.13;nan
7888;BME280;3989;48.810;9.208;2023-05-20T13:36:04;98449.47;;;26.32;nan
7888;BME280;3989;48.810;9.208;2023-05-20T13:38:31;98493.66;;;26.49;nan
7888;BME280;3989;48.810;9.208;2023-05-20T13:40:57;98480.81;;;26.44;nan
7888;BME280;3989;48.810;9.208;2023-05-20T13:43:24;98476.75;;;26.94;nan
7888;BME280;3989;48.810;9.208;2023-05-20T13:45:52;98410.41;;;27.40;nan